Time;durP1;ratioP1;P1;durP2;ratioP2;P2;SDS_P1;SDS_P2;PMS_P1;PMS_P2;Temp;Humidity;BMP_temperature;BMP_pressure;BME280_temperature;BME280_humidity;BME280_pressure;Samples;Min_cycle;Max_cycle;Signal;HPM_P1;HPM_P2
2021/07/19 00:00:34;;;;;;;1.20;1.15;;;22.10;99.90;;;;;;5069745;28;20240;-73
2021/07/19 00:03:00;;;;;;;0.65;0.38;;;22.10;99.90;;;;;;5069805;28;20167;-73
2021/07/19 00:05:28;;;;;;;0.47;0.40;;;22.10;99.90;;;;;;5084925;28;20207;-73
2021/07/19 00:07:55;;;;;;;0.28;0.28;;;22.20;99.90;;;;;;5069586;28;20184;-74
2021/07/19 00:10:22;;;;;;;0.73;0.73;;;22.30;99.90;;;;;;5069619;28;20179;-73
2021/07/19 00:12:49;;;;;;;0.57;0.43;;;22.20;99.90;;;;;;5069551;28;20187;-73
2021/07/19 00:15:21;;;;;;;0.63;0.63;;;22.20;99.90;;;;;;5080564;28;20187;-75
2021/07/19 00:17:48;;;;;;;2.45;1.23;;;22.20;99.90;;;;;;5082012;28;20203;-74
2021/07/19 00:20:15;;;;;;;0.77;0.77;;;22.10;99.90;;;;;;5088250;28;20159;-74
2021/07/19 00:22:42;;;;;;;1.23;1.17;;;22.10;99.90;;;;;;5087155;28;20215;-74
2021/07/19 00:25:11;;;;;;;0.93;0.90;;;22.20;99.90;;;;;;5073130;28;20195;-74
2021/07/19 00:27:39;;;;;;;1.67;1.15;;;22.10;99.90;;;;;;5069239;28;20180;-74
2021/07/19 00:30:06;;;;;;;0.80;0.17;;;22.20;99.90;;;;;;5069472;28;20149;-74
2021/07/19 00:32:33;;;;;;;1.05;0.93;;;22.10;99.90;;;;;;5073852;28;20218;-74
2021/07/19 00:34:59;;;;;;;4.28;0.82;;;22.00;99.90;;;;;;5069268;28;20243;-73
2021/07/19 00:37:24;;;;;;;0.93;0.73;;;22.10;99.90;;;;;;5069187;28;20171;-73
2021/07/19 00:39:50;;;;;;;0.73;0.60;;;22.00;99.90;;;;;;5069202;28;20156;-74
2021/07/19 00:42:16;;;;;;;0.75;0.75;;;22.00;99.90;;;;;;5069140;28;20198;-74
2021/07/19 00:44:42;;;;;;;1.45;0.98;;;21.90;99.90;;;;;;5069088;28;20640;-74
2021/07/19 00:47:10;;;;;;;0.43;0.43;;;21.90;99.90;;;;;;5068622;28;20223;-74
2021/07/19 00:49:37;;;;;;;0.45;0.45;;;21.90;99.90;;;;;;5067733;28;20183;-73
2021/07/19 00:52:04;;;;;;;0.73;0.73;;;22.00;99.90;;;;;;5067730;28;20593;-74
2021/07/19 00:54:31;;;;;;;3.85;1.35;;;21.90;99.90;;;;;;5068979;28;20153;-74
2021/07/19 00:57:00;;;;;;;0.75;0.75;;;21.90;99.90;;;;;;5068438;28;20239;-74
2021/07/19 00:59:30;;;;;;;0.90;0.90;;;21.80;99.90;;;;;;5079044;28;20189;-74
2021/07/19 01:01:59;;;;;;;0.65;0.65;;;21.80;99.90;;;;;;5088565;28;20286;-74
2021/07/19 01:04:26;;;;;;;0.47;0.47;;;21.70;99.90;;;;;;5088595;28;20251;-74
2021/07/19 01:06:58;;;;;;;0.30;0.30;;;21.70;99.90;;;;;;5088756;28;20148;-73
2021/07/19 01:09:26;;;;;;;0.28;0.28;;;21.70;99.90;;;;;;5086983;28;20171;-74
2021/07/19 01:11:53;;;;;;;0.55;0.55;;;21.80;99.90;;;;;;5088697;28;20256;-74
2021/07/19 01:14:18;;;;;;;0.30;0.30;;;21.90;99.90;;;;;;5088812;28;20187;-73
2021/07/19 01:16:44;;;;;;;0.63;0.63;;;21.90;99.90;;;;;;5088566;28;20163;-73
2021/07/19 01:19:12;;;;;;;1.48;0.90;;;21.90;99.90;;;;;;5087288;28;20187;-74
2021/07/19 01:22:08;;;;;;;0.52;0.52;;;22.10;99.90;;;;;;5086783;28;20199;-73
2021/07/19 01:24:43;;;;;;;0.25;0.25;;;22.20;99.90;;;;;;5088574;28;20194;-73
2021/07/19 01:27:47;;;;;;;0.60;0.60;;;22.10;99.90;;;;;;5088671;28;20155;-73
2021/07/19 01:30:13;;;;;;;0.70;0.52;;;22.00;99.90;;;;;;5088727;28;20163;-73
2021/07/19 01:32:46;;;;;;;2.33;1.67;;;21.90;99.90;;;;;;5089348;28;20164;-73
2021/07/19 01:35:14;;;;;;;1.27;1.10;;;21.90;99.90;;;;;;5092589;28;20194;-73
2021/07/19 01:37:44;;;;;;;1.50;1.40;;;21.90;99.90;;;;;;5092643;28;20162;-73
2021/07/19 01:40:11;;;;;;;1.50;0.73;;;22.20;99.90;;;;;;5091215;28;20263;-73
2021/07/19 01:42:39;;;;;;;0.82;0.82;;;22.10;99.90;;;;;;5092510;28;20164;-73
2021/07/19 01:45:07;;;;;;;0.35;0.35;;;22.10;99.90;;;;;;5092463;28;20191;-72
2021/07/19 01:47:35;;;;;;;0.30;0.30;;;22.10;99.90;;;;;;5092205;28;20249;-72
2021/07/19 01:50:04;;;;;;;0.93;0.55;;;22.10;99.90;;;;;;5092361;28;20511;-73
2021/07/19 01:52:31;;;;;;;0.85;0.85;;;22.10;99.90;;;;;;5092243;28;20159;-72
2021/07/19 01:54:57;;;;;;;0.75;0.75;;;22.10;99.90;;;;;;5092160;28;20211;-72
2021/07/19 01:57:24;;;;;;;0.52;0.52;;;22.30;99.90;;;;;;5092279;28;20167;-73
2021/07/19 01:59:51;;;;;;;0.90;0.47;;;22.30;99.90;;;;;;5092146;28;20180;-73
2021/07/19 02:02:20;;;;;;;1.98;0.80;;;22.20;99.90;;;;;;5092082;28;20223;-73
2021/07/19 02:04:48;;;;;;;0.80;0.63;;;22.20;99.90;;;;;;5090596;28;20215;-73
2021/07/19 02:07:17;;;;;;;0.63;0.63;;;22.20;99.90;;;;;;5090617;28;20254;-73
2021/07/19 02:09:45;;;;;;;6.88;1.02;;;22.20;99.90;;;;;;5090564;28;20168;-72
2021/07/19 02:12:12;;;;;;;0.73;0.50;;;22.10;99.90;;;;;;5090648;28;20198;-73
2021/07/19 02:14:43;;;;;;;0.93;0.85;;;22.10;99.90;;;;;;5091840;28;20213;-73
2021/07/19 02:17:11;;;;;;;1.15;0.77;;;22.00;99.90;;;;;;5091883;28;20220;-73
2021/07/19 02:19:38;;;;;;;1.05;0.98;;;21.90;99.90;;;;;;5091772;28;20172;-73
2021/07/19 02:22:05;;;;;;;0.68;0.68;;;22.00;99.90;;;;;;5091767;28;20186;-72
2021/07/19 02:24:33;;;;;;;0.55;0.50;;;21.90;99.90;;;;;;5090450;28;20202;-72
2021/07/19 02:27:00;;;;;;;5.40;1.23;;;21.90;99.90;;;;;;5091650;28;20254;-73
2021/07/19 02:29:27;;;;;;;1.00;0.90;;;21.90;99.90;;;;;;5090262;28;20239;-73
2021/07/19 02:31:53;;;;;;;0.52;0.52;;;21.90;99.90;;;;;;5091545;28;20618;-74
2021/07/19 02:34:21;;;;;;;1.55;1.20;;;21.90;99.90;;;;;;5091396;28;20191;-73
2021/07/19 02:36:48;;;;;;;2.53;1.55;;;22.10;99.90;;;;;;5091568;28;20563;-74
2021/07/19 02:39:16;;;;;;;0.50;0.50;;;22.10;99.90;;;;;;5091524;28;20625;-74
2021/07/19 02:41:44;;;;;;;5.60;0.95;;;22.10;99.90;;;;;;5091438;28;20198;-74
2021/07/19 02:44:11;;;;;;;0.47;0.47;;;22.10;99.90;;;;;;5088838;28;20195;-74
2021/07/19 02:46:38;;;;;;;3.47;1.00;;;22.10;99.90;;;;;;5089707;28;20246;-74
2021/07/19 02:49:10;;;;;;;0.22;0.22;;;21.90;99.90;;;;;;5091084;28;20198;-74
2021/07/19 02:51:36;;;;;;;0.70;0.70;;;21.80;99.90;;;;;;5089908;28;20176;-74
2021/07/19 02:54:04;;;;;;;0.73;0.73;;;21.80;99.90;;;;;;5089731;28;20198;-73
2021/07/19 02:56:35;;;;;;;1.65;1.20;;;21.70;99.90;;;;;;5089698;28;20167;-73
2021/07/19 02:59:02;;;;;;;1.35;1.25;;;21.70;99.90;;;;;;5089363;28;20175;-74
2021/07/19 03:01:29;;;;;;;0.55;0.55;;;21.80;99.90;;;;;;5089245;28;20534;-73
2021/07/19 03:04:00;;;;;;;0.55;0.55;;;21.90;99.90;;;;;;5090334;28;20181;-74
2021/07/19 03:06:31;;;;;;;4.88;4.20;;;21.90;99.90;;;;;;5088903;28;20180;-73
2021/07/19 03:09:00;;;;;;;1.05;0.40;;;21.80;99.90;;;;;;5088738;28;20202;-73
2021/07/19 03:11:36;;;;;;;1.27;1.17;;;21.70;99.90;;;;;;5089737;28;20180;-72
2021/07/19 03:14:07;;;;;;;0.73;0.73;;;21.70;99.90;;;;;;5090074;28;20243;-71
2021/07/19 03:16:34;;;;;;;1.35;1.00;;;21.70;99.90;;;;;;5088889;28;20175;-73
2021/07/19 03:19:06;;;;;;;0.75;0.70;;;21.60;99.90;;;;;;5090003;28;20166;-72
2021/07/19 03:21:33;;;;;;;1.42;1.33;;;21.50;99.90;;;;;;5089975;28;20523;-72
2021/07/19 03:24:01;;;;;;;0.68;0.47;;;21.50;99.90;;;;;;5089751;28;20212;-73
2021/07/19 03:26:29;;;;;;;0.85;0.30;;;21.50;99.90;;;;;;5089958;28;20159;-73
2021/07/19 03:28:56;;;;;;;2.33;1.10;;;21.50;99.90;;;;;;5089834;28;20187;-72
2021/07/19 03:31:24;;;;;;;1.02;1.02;;;21.60;99.90;;;;;;5090313;28;20178;-72
2021/07/19 03:33:51;;;;;;;0.75;0.52;;;21.60;99.90;;;;;;5090267;28;20148;-72
2021/07/19 03:36:18;;;;;;;1.40;0.80;;;21.70;99.90;;;;;;5090421;28;20170;-74
2021/07/19 03:38:47;;;;;;;0.22;0.22;;;21.70;99.90;;;;;;5090196;28;20243;-74
2021/07/19 03:41:14;;;;;;;7.93;1.48;;;21.70;99.90;;;;;;5088884;28;20175;-73
2021/07/19 03:43:42;;;;;;;1.92;1.30;;;21.80;99.90;;;;;;5090240;28;20152;-73
2021/07/19 03:46:09;;;;;;;2.22;1.45;;;21.80;99.90;;;;;;5088408;28;20219;-74
2021/07/19 03:48:36;;;;;;;0.75;0.75;;;21.70;99.90;;;;;;5089971;28;20221;-73
2021/07/19 03:51:03;;;;;;;0.22;0.22;;;21.70;99.90;;;;;;5089900;28;20259;-73
2021/07/19 03:53:29;;;;;;;0.47;0.47;;;21.60;99.90;;;;;;5088560;28;20163;-74
2021/07/19 03:55:56;;;;;;;1.35;0.75;;;21.50;99.90;;;;;;5089489;28;20195;-74
2021/07/19 03:58:23;;;;;;;1.45;0.98;;;21.50;99.90;;;;;;5089739;28;20190;-74
2021/07/19 04:00:52;;;;;;;1.42;1.33;;;21.50;99.90;;;;;;5088276;28;20181;-74
2021/07/19 04:03:27;;;;;;;0.20;0.20;;;21.60;99.90;;;;;;5088313;28;20239;-74
2021/07/19 04:06:00;;;;;;;1.48;1.08;;;21.80;99.90;;;;;;5088100;28;20202;-74
2021/07/19 04:08:31;;;;;;;0.47;0.30;;;22.20;99.90;;;;;;5089438;28;20325;-73
2021/07/19 04:10:58;;;;;;;1.05;0.75;;;22.30;99.90;;;;;;5089270;28;20225;-73
2021/07/19 04:13:25;;;;;;;0.77;0.77;;;22.30;99.90;;;;;;5089527;28;20163;-73
2021/07/19 04:15:52;;;;;;;0.68;0.68;;;22.40;99.90;;;;;;5089431;28;20207;-74
2021/07/19 04:18:21;;;;;;;1.48;0.50;;;22.60;99.90;;;;;;5088179;28;20679;-73
2021/07/19 04:20:52;;;;;;;0.20;0.20;;;22.80;99.90;;;;;;5089378;28;20542;-73
2021/07/19 04:23:19;;;;;;;0.00;0.00;;;23.00;99.90;;;;;;5089402;28;20269;-73
2021/07/19 04:25:46;;;;;;;0.38;0.38;;;23.30;99.90;;;;;;5087022;28;20210;-73
2021/07/19 04:28:20;;;;;;;0.52;0.52;;;23.40;99.90;;;;;;5089145;28;20183;-73
2021/07/19 04:30:49;;;;;;;2.55;1.52;;;23.00;99.90;;;;;;5089107;28;20171;-73
2021/07/19 04:33:19;;;;;;;4.85;2.05;;;22.80;99.90;;;;;;5087611;28;20618;-72
2021/07/19 04:35:49;;;;;;;1.90;1.35;;;22.70;99.90;;;;;;5088938;28;20183;-72
2021/07/19 04:38:22;;;;;;;0.38;0.38;;;22.50;99.90;;;;;;5089004;28;20254;-73
2021/07/19 04:40:53;;;;;;;0.20;0.20;;;22.50;99.90;;;;;;5089026;28;20568;-73
2021/07/19 04:43:20;;;;;;;1.40;0.52;;;22.60;99.90;;;;;;5088788;28;20164;-72
2021/07/19 04:45:47;;;;;;;0.35;0.32;;;22.80;99.90;;;;;;5088378;28;20211;-72
2021/07/19 04:48:14;;;;;;;1.27;0.65;;;22.90;99.90;;;;;;5088004;28;20179;-72
2021/07/19 04:50:41;;;;;;;0.57;0.57;;;22.80;99.90;;;;;;5088263;28;20525;-72
2021/07/19 04:53:09;;;;;;;0.40;0.40;;;22.80;99.90;;;;;;5088020;28;20174;-72
2021/07/19 04:55:37;;;;;;;1.83;1.08;;;23.20;99.90;;;;;;5088072;28;20210;-72
2021/07/19 04:58:04;;;;;;;3.45;0.47;;;23.50;99.90;;;;;;5087182;28;20181;-73
2021/07/19 05:00:34;;;;;;;0.68;0.68;;;24.00;99.90;;;;;;5088532;28;20155;-72
2021/07/19 05:03:03;;;;;;;0.47;0.47;;;24.10;99.90;;;;;;5087047;28;20175;-72
2021/07/19 05:05:31;;;;;;;1.33;1.20;;;24.10;99.90;;;;;;5088596;28;20187;-72
2021/07/19 05:07:59;;;;;;;2.22;1.05;;;24.20;99.90;;;;;;5086380;28;20202;-72
2021/07/19 05:10:26;;;;;;;0.68;0.68;;;24.20;99.90;;;;;;5088487;28;20162;-72
2021/07/19 05:12:54;;;;;;;0.75;0.73;;;23.70;99.90;;;;;;5088463;28;20175;-73
2021/07/19 05:15:21;;;;;;;0.88;0.85;;;23.40;99.90;;;;;;5087679;28;20191;-72
2021/07/19 05:17:48;;;;;;;6.30;1.80;;;23.00;99.90;;;;;;5087731;28;20163;-72
2021/07/19 05:20:19;;;;;;;0.55;0.55;;;22.90;99.90;;;;;;5087746;28;20612;-72
2021/07/19 05:22:54;;;;;;;1.20;1.13;;;22.80;99.90;;;;;;5087816;28;20163;-74
2021/07/19 05:25:25;;;;;;;0.90;0.90;;;22.80;99.90;;;;;;5087255;28;20218;-75
2021/07/19 05:28:06;;;;;;;6.53;0.63;;;22.80;99.90;;;;;;5086022;28;20317;-70
2021/07/19 05:30:34;;;;;;;1.10;0.70;;;22.90;99.90;;;;;;5067808;28;20213;-69
2021/07/19 05:33:00;;;;;;;0.90;0.45;;;22.90;99.90;;;;;;5067855;28;20153;-70
2021/07/19 05:35:26;;;;;;;0.30;0.30;;;23.00;99.90;;;;;;5087241;28;20206;-72
2021/07/19 05:37:52;;;;;;;1.52;0.68;;;23.00;99.90;;;;;;5086796;28;20164;-71
2021/07/19 05:40:19;;;;;;;1.85;0.63;;;23.10;99.90;;;;;;5086406;28;20201;-71
2021/07/19 05:42:45;;;;;;;1.17;0.65;;;23.30;99.90;;;;;;5086928;28;20267;-71
2021/07/19 05:45:14;;;;;;;2.00;0.68;;;24.00;99.90;;;;;;5087849;28;20203;-72
2021/07/19 05:47:40;;;;;;;5.28;1.48;;;24.00;99.90;;;;;;5087852;28;20219;-71
2021/07/19 05:50:07;;;;;;;0.20;0.15;;;24.00;99.90;;;;;;5086520;28;20218;-69
2021/07/19 05:52:34;;;;;;;1.23;0.75;;;24.00;99.90;;;;;;5088142;28;20156;-70
2021/07/19 05:55:05;;;;;;;11.70;1.20;;;23.90;99.90;;;;;;5086334;28;20175;-70
2021/07/19 05:57:32;;;;;;;0.70;0.45;;;23.80;99.90;;;;;;5085194;28;20213;-68
2021/07/19 05:59:58;;;;;;;0.60;0.55;;;23.60;99.90;;;;;;5082476;28;20254;-70
2021/07/19 06:02:25;;;;;;;0.57;0.57;;;23.50;99.90;;;;;;5085978;28;20193;-70
2021/07/19 06:04:52;;;;;;;0.20;0.20;;;23.60;99.90;;;;;;5086164;28;20156;-68
2021/07/19 06:07:17;;;;;;;0.30;0.30;;;23.80;99.90;;;;;;5086071;28;20159;-70
2021/07/19 06:09:44;;;;;;;1.20;0.80;;;24.00;99.90;;;;;;5078906;28;20214;-69
2021/07/19 06:12:16;;;;;;;0.88;0.88;;;24.00;99.90;;;;;;5070921;28;20179;-71
2021/07/19 06:14:42;;;;;;;1.95;0.82;;;24.20;99.90;;;;;;5084810;28;20171;-69
2021/07/19 06:17:08;;;;;;;2.50;1.23;;;24.20;99.90;;;;;;5083723;28;20244;-70
2021/07/19 06:19:34;;;;;;;1.05;0.60;;;24.30;99.90;;;;;;5071214;28;20270;-69
2021/07/19 06:22:00;;;;;;;1.65;0.75;;;24.50;99.90;;;;;;5071626;28;20164;-70
2021/07/19 06:24:26;;;;;;;0.98;0.75;;;24.90;99.90;;;;;;5071663;28;20290;-70
2021/07/19 06:26:52;;;;;;;5.15;0.93;;;24.80;99.90;;;;;;5084108;28;20179;-70
2021/07/19 06:29:18;;;;;;;1.00;0.70;;;24.80;99.90;;;;;;5091244;28;20263;-70
2021/07/19 06:31:44;;;;;;;2.72;1.00;;;24.70;99.90;;;;;;5091317;28;20170;-70
2021/07/19 06:34:10;;;;;;;0.85;0.85;;;24.80;99.90;;;;;;5091303;28;20170;-70
2021/07/19 06:36:38;;;;;;;0.82;0.82;;;25.00;99.90;;;;;;5089926;28;20172;-70
2021/07/19 06:39:05;;;;;;;0.52;0.40;;;25.60;99.90;;;;;;5091428;28;20251;-69
2021/07/19 06:41:31;;;;;;;0.38;0.35;;;25.20;99.90;;;;;;5091295;28;20167;-69
2021/07/19 06:43:57;;;;;;;1.30;0.85;;;24.50;99.90;;;;;;5077892;28;20172;-69
2021/07/19 06:46:23;;;;;;;4.75;1.20;;;24.40;99.90;;;;;;5070879;28;20254;-69
2021/07/19 06:48:49;;;;;;;0.82;0.60;;;24.30;99.90;;;;;;5070873;28;20192;-69
2021/07/19 06:51:15;;;;;;;0.52;0.52;;;24.60;99.90;;;;;;5070808;28;20161;-69
2021/07/19 06:53:41;;;;;;;0.50;0.50;;;25.40;99.90;;;;;;5070963;28;20231;-70
2021/07/19 06:56:07;;;;;;;1.48;0.77;;;26.90;99.90;;;;;;5103116;28;20637;-70
2021/07/19 06:58:33;;;;;;;0.32;0.32;;;27.00;99.90;;;;;;5070558;28;20238;-70
2021/07/19 07:00:59;;;;;;;0.65;0.65;;;26.60;99.90;;;;;;5070673;28;20191;-70
2021/07/19 07:03:25;;;;;;;0.60;0.57;;;27.10;99.90;;;;;;5069355;28;20176;-70
2021/07/19 07:05:50;;;;;;;1.05;0.65;;;28.00;99.90;;;;;;5070647;28;20168;-70
2021/07/19 07:08:16;;;;;;;4.63;0.82;;;28.70;99.90;;;;;;5102699;28;20199;-70
2021/07/19 07:10:42;;;;;;;1.15;0.93;;;29.60;99.90;;;;;;5102672;28;20217;-70
2021/07/19 07:13:11;;;;;;;1.08;0.50;;;28.80;99.90;;;;;;5070579;28;20157;-70
2021/07/19 07:15:38;;;;;;;0.50;0.47;;;29.10;99.90;;;;;;5069258;28;20171;-70
2021/07/19 07:18:06;;;;;;;0.90;0.90;;;27.90;99.90;;;;;;5083171;28;20176;-68
2021/07/19 07:20:32;;;;;;;1.02;0.50;;;27.60;99.90;;;;;;5090386;28;20262;-70
2021/07/19 07:22:58;;;;;;;0.88;0.82;;;28.30;99.90;;;;;;5090540;28;20164;-70
2021/07/19 07:25:24;;;;;;;0.30;0.30;;;29.00;99.90;;;;;;5089231;28;20171;-70
2021/07/19 07:27:49;;;;;;;4.15;1.98;;;29.10;99.90;;;;;;5090299;28;20215;-70
2021/07/19 07:30:16;;;;;;;3.25;0.82;;;27.30;99.90;;;;;;5089562;28;20187;-70
2021/07/19 07:32:42;;;;;;;0.98;0.52;;;27.70;99.90;;;;;;5090268;28;20147;-70
2021/07/19 07:35:08;;;;;;;3.95;1.60;;;28.10;99.90;;;;;;5090194;28;20156;-70
2021/07/19 07:37:37;;;;;;;0.95;0.95;;;27.00;99.90;;;;;;5090257;28;20170;-70
2021/07/19 07:40:05;;;;;;;0.20;0.20;;;27.20;99.90;;;;;;5090052;28;20201;-70
2021/07/19 07:42:32;;;;;;;2.97;0.50;;;27.60;99.90;;;;;;5090162;28;20171;-70
2021/07/19 07:44:59;;;;;;;1.08;0.93;;;28.10;99.90;;;;;;5089819;28;20232;-70
2021/07/19 07:47:26;;;;;;;0.88;0.70;;;28.10;99.90;;;;;;5088467;28;20314;-70
2021/07/19 07:49:52;;;;;;;10.30;1.27;;;28.10;99.90;;;;;;5090000;28;20187;-69
2021/07/19 07:52:19;;;;;;;0.60;0.60;;;26.90;99.90;;;;;;5088511;28;20183;-70
2021/07/19 07:54:45;;;;;;;0.35;0.35;;;26.80;99.90;;;;;;5089847;28;20160;-69
2021/07/19 07:57:11;;;;;;;0.75;0.75;;;26.30;99.90;;;;;;5089652;28;20155;-70
2021/07/19 07:59:37;;;;;;;2.72;0.73;;;26.60;99.90;;;;;;5088371;28;20199;-70
2021/07/19 08:02:05;;;;;;;0.95;0.63;;;27.30;99.90;;;;;;5089933;28;20207;-70
2021/07/19 08:04:31;;;;;;;0.43;0.43;;;28.80;99.90;;;;;;5089654;28;20168;-70
2021/07/19 08:06:59;;;;;;;1.42;0.68;;;29.90;99.90;;;;;;5089688;28;20160;-70
2021/07/19 08:09:25;;;;;;;2.80;0.98;;;30.40;99.90;;;;;;5088192;28;20203;-70
2021/07/19 08:11:54;;;;;;;2.47;0.65;;;29.70;99.90;;;;;;5116659;28;20229;-70
2021/07/19 08:14:20;;;;;;;0.43;0.43;;;30.00;99.90;;;;;;5089586;28;20208;-70
2021/07/19 08:16:46;;;;;;;1.27;0.85;;;29.50;99.90;;;;;;5091345;28;20167;-69
2021/07/19 08:19:12;;;;;;;4.47;1.05;;;29.10;99.90;;;;;;5109675;28;20197;-69
2021/07/19 08:21:40;;;;;;;0.88;0.77;;;27.60;99.90;;;;;;5109801;28;20159;-70
2021/07/19 08:24:07;;;;;;;1.17;0.85;;;27.60;99.90;;;;;;5109451;28;20163;-70
2021/07/19 08:26:34;;;;;;;0.20;0.20;;;27.50;99.90;;;;;;5109450;28;20152;-69
2021/07/19 08:29:00;;;;;;;1.13;0.98;;;27.40;99.90;;;;;;5109541;28;20278;-70
2021/07/19 08:31:27;;;;;;;0.75;0.75;;;27.20;99.90;;;;;;5109671;28;20214;-70
2021/07/19 08:33:55;;;;;;;0.90;0.88;;;27.60;99.90;;;;;;5109171;28;20181;-69
2021/07/19 08:36:21;;;;;;;0.30;0.30;;;28.30;99.90;;;;;;5109491;28;20179;-69
2021/07/19 08:38:48;;;;;;;0.50;0.50;;;29.10;99.90;;;;;;5109414;28;20165;-70
2021/07/19 08:41:15;;;;;;;1.30;0.93;;;29.20;99.90;;;;;;5107509;28;20178;-70
2021/07/19 08:43:42;;;;;;;0.75;0.45;;;29.90;99.90;;;;;;5109048;28;20647;-70
2021/07/19 08:46:09;;;;;;;29.25;1.15;;;29.90;99.90;;;;;;5108944;28;20210;-70
2021/07/19 08:48:35;;;;;;;0.40;0.40;;;29.10;99.90;;;;;;5109211;28;20605;-70
2021/07/19 08:51:03;;;;;;;4.38;1.38;;;28.80;99.90;;;;;;5109554;28;20228;-69
2021/07/19 08:53:32;;;;;;;0.50;0.50;;;29.30;99.90;;;;;;5109194;28;20158;-70
2021/07/19 08:55:58;;;;;;;0.40;0.40;;;28.80;99.90;;;;;;5107814;28;20171;-69
2021/07/19 08:58:26;;;;;;;6.07;0.70;;;29.10;99.90;;;;;;5107742;28;20595;-70
2021/07/19 09:00:56;;;;;;;3.67;1.13;;;29.00;99.90;;;;;;5107683;28;20190;-70
2021/07/19 09:03:22;;;;;;;1.27;0.68;;;28.70;99.90;;;;;;5109116;28;20161;-70
2021/07/19 09:05:48;;;;;;;3.50;2.75;;;28.20;99.90;;;;;;5107757;28;20194;-70
2021/07/19 09:08:14;;;;;;;1.48;0.68;;;28.90;99.90;;;;;;5108969;28;20269;-70
2021/07/19 09:10:40;;;;;;;3.78;0.43;;;28.60;99.90;;;;;;5095810;28;20222;-70
2021/07/19 09:13:19;;;;;;;0.65;0.52;;;28.10;99.90;;;;;;5088763;28;20174;-70
2021/07/19 09:15:46;;;;;;;0.55;0.38;;;28.00;99.90;;;;;;5088705;28;20158;-68
2021/07/19 09:18:21;;;;;;;0.98;0.40;;;28.30;99.90;;;;;;5088465;28;20258;-70
2021/07/19 09:20:47;;;;;;;3.30;0.52;;;28.50;99.90;;;;;;5088502;28;20254;-68
2021/07/19 09:23:13;;;;;;;0.63;0.63;;;28.50;99.90;;;;;;5088553;28;20234;-70
2021/07/19 09:25:39;;;;;;;0.43;0.43;;;28.70;99.90;;;;;;5088548;28;20164;-69
2021/07/19 09:28:11;;;;;;;2.83;0.65;;;29.90;99.90;;;;;;5088472;28;20217;-70
2021/07/19 09:30:39;;;;;;;1.20;0.88;;;29.90;99.90;;;;;;5088466;28;20187;-69
2021/07/19 09:33:22;;;;;;;0.77;0.57;;;29.90;99.90;;;;;;5087390;28;20175;-70
2021/07/19 09:35:52;;;;;;;6.63;1.60;;;30.30;99.90;;;;;;5088520;28;20207;-69
2021/07/19 09:38:19;;;;;;;0.20;0.20;;;29.30;99.90;;;;;;5088509;28;20155;-69
2021/07/19 09:40:52;;;;;;;1.55;1.45;;;28.30;99.90;;;;;;5088343;28;20191;-69
2021/07/19 09:43:22;;;;;;;3.40;0.52;;;27.70;99.90;;;;;;5088326;28;20224;-69
2021/07/19 09:46:09;;;;;;;0.65;0.55;;;27.70;99.90;;;;;;5088177;28;20237;-69
2021/07/19 09:48:38;;;;;;;0.52;0.52;;;27.10;99.90;;;;;;5088397;28;20195;-69
2021/07/19 09:51:04;;;;;;;0.17;0.17;;;26.90;99.90;;;;;;5088394;28;20148;-69
2021/07/19 09:53:39;;;;;;;11.18;1.33;;;26.60;99.90;;;;;;5090090;28;20646;-68
2021/07/19 09:56:09;;;;;;;4.88;1.48;;;26.20;99.90;;;;;;5092331;28;20155;-68
2021/07/19 09:58:36;;;;;;;0.55;0.55;;;26.30;99.90;;;;;;5092009;28;20156;-69
2021/07/19 10:01:01;;;;;;;1.95;1.30;;;26.40;99.90;;;;;;5092187;28;20605;-69
2021/07/19 10:03:30;;;;;;;0.75;0.75;;;26.40;99.90;;;;;;5092151;28;20170;-69
2021/07/19 10:06:04;;;;;;;0.10;0.10;;;26.60;99.90;;;;;;5091924;28;20156;-69
2021/07/19 10:08:30;;;;;;;7.97;1.42;;;26.50;99.90;;;;;;5091609;28;20231;-68
2021/07/19 10:10:56;;;;;;;0.10;0.10;;;26.60;99.90;;;;;;5084922;28;20203;-70
2021/07/19 10:13:33;;;;;;;0.73;0.57;;;26.80;99.90;;;;;;5091989;28;20155;-69
2021/07/19 10:16:01;;;;;;;0.25;0.20;;;27.30;99.90;;;;;;5091774;28;20242;-70
2021/07/19 10:18:30;;;;;;;1.67;0.73;;;27.90;99.90;;;;;;5107899;28;20270;-70
2021/07/19 10:20:57;;;;;;;1.38;0.95;;;28.20;99.90;;;;;;5111946;28;20277;-70
2021/07/19 10:23:23;;;;;;;0.52;0.43;;;28.00;99.90;;;;;;5112099;28;20166;-69
2021/07/19 10:25:51;;;;;;;0.77;0.77;;;28.40;99.90;;;;;;5110691;28;20213;-70
2021/07/19 10:28:17;;;;;;;0.25;0.25;;;30.00;99.90;;;;;;5111887;28;20187;-70
2021/07/19 10:30:43;;;;;;;0.52;0.32;;;30.70;99.90;;;;;;5111847;28;20189;-70
2021/07/19 10:33:09;;;;;;;0.63;0.63;;;31.30;99.90;;;;;;5111770;28;20159;-70
2021/07/19 10:35:35;;;;;;;0.38;0.35;;;30.30;99.90;;;;;;5111604;28;20155;-70
2021/07/19 10:38:34;;;;;;;0.43;0.43;;;30.50;99.90;;;;;;5111768;28;20182;-69
2021/07/19 10:41:01;;;;;;;0.40;0.40;;;30.30;99.90;;;;;;5089236;28;20207;-70
2021/07/19 10:43:30;;;;;;;1.80;0.65;;;29.90;99.90;;;;;;5089266;28;20197;-70
2021/07/19 10:46:06;;;;;;;0.60;0.47;;;29.80;99.90;;;;;;5088975;28;20257;-70
2021/07/19 10:48:33;;;;;;;18.27;0.98;;;29.50;99.90;;;;;;5089104;28;20202;-69
2021/07/19 10:51:22;;;;;;;3.30;1.02;;;28.80;99.90;;;;;;5088942;28;20203;-69
2021/07/19 10:53:48;;;;;;;0.35;0.35;;;29.30;99.90;;;;;;5088984;28;20194;-70
2021/07/19 10:56:15;;;;;;;0.57;0.45;;;29.30;99.90;;;;;;5088772;28;20159;-69
2021/07/19 10:58:50;;;;;;;2.95;0.47;;;29.70;99.90;;;;;;5088894;28;20263;-70
2021/07/19 11:01:34;;;;;;;0.32;0.32;;;30.90;99.90;;;;;;5089032;28;20174;-70
2021/07/19 11:04:02;;;;;;;0.35;0.30;;;30.30;99.90;;;;;;5088406;28;20259;-69
2021/07/19 11:06:38;;;;;;;1.17;0.57;;;28.40;99.90;;;;;;5088166;28;20674;-69
2021/07/19 11:09:09;;;;;;;0.35;0.35;;;28.10;99.90;;;;;;5088230;28;20207;-69
2021/07/19 11:11:41;;;;;;;0.20;0.20;;;28.20;99.90;;;;;;5052576;28;20719;-69
2021/07/19 11:14:19;;;;;;;2.80;0.68;;;28.40;99.90;;;;;;5051680;28;20164;-69
2021/07/19 11:16:50;;;;;;;0.95;0.75;;;28.20;99.90;;;;;;5081525;28;20183;-69
2021/07/19 11:19:30;;;;;;;2.30;1.60;;;28.50;99.90;;;;;;5089011;28;20195;-69
2021/07/19 11:22:12;;;;;;;4.85;0.98;;;29.10;99.90;;;;;;5090489;28;20159;-69
2021/07/19 11:24:40;;;;;;;0.35;0.32;;;29.20;99.90;;;;;;5089114;28;20170;-69
2021/07/19 11:27:06;;;;;;;0.57;0.57;;;29.10;99.90;;;;;;5090531;28;20163;-69
2021/07/19 11:29:38;;;;;;;0.20;0.20;;;28.80;99.90;;;;;;5090305;28;20229;-69
2021/07/19 11:32:31;;;;;;;0.43;0.43;;;28.70;99.90;;;;;;5088917;28;20297;-69
2021/07/19 11:35:12;;;;;;;0.68;0.68;;;29.30;99.90;;;;;;5089525;28;20187;-69
2021/07/19 11:37:41;;;;;;;0.95;0.80;;;28.80;99.90;;;;;;5090275;28;20167;-69
2021/07/19 11:40:09;;;;;;;0.43;0.43;;;29.90;99.90;;;;;;5090196;28;20209;-69
2021/07/19 11:42:40;;;;;;;0.70;0.20;;;29.70;99.90;;;;;;5089023;28;20614;-69
2021/07/19 11:45:11;;;;;;;0.77;0.60;;;29.90;99.90;;;;;;5090139;28;20151;-69
2021/07/19 11:47:43;;;;;;;2.03;0.65;;;29.70;99.90;;;;;;5089897;28;20219;-70
2021/07/19 11:50:09;;;;;;;8.80;2.33;;;30.10;99.90;;;;;;5088740;28;20207;-69
2021/07/19 11:52:39;;;;;;;5.13;0.40;;;29.70;99.90;;;;;;5090044;28;20162;-69
2021/07/19 11:55:06;;;;;;;8.15;0.65;;;29.50;99.90;;;;;;5088575;28;20160;-69
2021/07/19 11:57:54;;;;;;;0.32;0.32;;;29.60;99.90;;;;;;5089910;28;20155;-69
2021/07/19 12:00:41;;;;;;;0.30;0.22;;;30.00;99.90;;;;;;5089628;28;20199;-69
2021/07/19 12:03:15;;;;;;;2.30;0.70;;;30.00;99.90;;;;;;5089649;28;20167;-69
2021/07/19 12:05:54;;;;;;;0.28;0.20;;;29.80;99.90;;;;;;5089689;28;20155;-69
2021/07/19 12:08:28;;;;;;;1.25;0.55;;;30.30;99.90;;;;;;5089437;28;20677;-68
2021/07/19 12:11:02;;;;;;;0.40;0.35;;;29.40;99.90;;;;;;5080965;28;20202;-69
2021/07/19 12:13:40;;;;;;;0.55;0.55;;;29.00;99.90;;;;;;5088170;28;20197;-69
2021/07/19 12:16:07;;;;;;;0.38;0.22;;;29.50;99.90;;;;;;5087943;28;20170;-69
2021/07/19 12:18:43;;;;;;;0.50;0.50;;;29.40;99.90;;;;;;5106368;28;20170;-69
2021/07/19 12:21:13;;;;;;;0.70;0.70;;;29.60;99.90;;;;;;5109798;28;20151;-69
2021/07/19 12:23:54;;;;;;;1.00;0.65;;;29.30;99.90;;;;;;5109861;28;20162;-69
2021/07/19 12:26:34;;;;;;;0.50;0.50;;;29.10;99.90;;;;;;5108302;28;20171;-69
2021/07/19 12:29:05;;;;;;;1.45;0.25;;;28.40;99.90;;;;;;5109398;28;20198;-69
2021/07/19 12:31:34;;;;;;;3.58;0.70;;;28.10;99.90;;;;;;5109493;28;20212;-69
2021/07/19 12:34:12;;;;;;;6.38;1.45;;;28.20;99.90;;;;;;5109229;28;20170;-69
2021/07/19 12:36:40;;;;;;;0.43;0.32;;;28.80;99.90;;;;;;5107870;28;20167;-69
2021/07/19 12:39:12;;;;;;;0.10;0.10;;;28.60;99.90;;;;;;5109492;28;20205;-69
2021/07/19 12:41:39;;;;;;;0.13;0.13;;;28.10;99.90;;;;;;5108134;28;20646;-69
2021/07/19 12:44:07;;;;;;;0.15;0.15;;;28.10;99.90;;;;;;5109524;28;20171;-69
2021/07/19 12:46:48;;;;;;;0.30;0.30;;;27.90;99.90;;;;;;5109076;28;20225;-69
2021/07/19 12:49:32;;;;;;;1.02;0.52;;;28.30;99.90;;;;;;5109065;28;20236;-69
2021/07/19 12:52:09;;;;;;;0.50;0.50;;;28.70;99.90;;;;;;5109243;28;20192;-69
2021/07/19 12:54:35;;;;;;;3.63;1.00;;;28.70;99.90;;;;;;5107776;28;20188;-69